sensor_id;sensor_type;location;lat;lon;timestamp;P1;durP1;ratioP1;P2;durP2;ratioP2
78116;SDS011;69042;59.120;37.904;2023-05-07T00:00:38;76.22;;;20.27;;
78116;SDS011;69042;59.120;37.904;2023-05-07T00:03:06;35.28;;;11.90;;
78116;SDS011;69042;59.120;37.904;2023-05-07T00:05:32;36.78;;;11.77;;
78116;SDS011;69042;59.120;37.904;2023-05-07T00:07:58;53.58;;;14.52;;
78116;SDS011;69042;59.120;37.904;2023-05-07T00:10:25;54.78;;;15.15;;
78116;SDS011;69042;59.120;37.904;2023-05-07T00:12:51;17.80;;;6.60;;
78116;SDS011;69042;59.120;37.904;2023-05-07T00:15:17;37.85;;;11.15;;
78116;SDS011;69042;59.120;37.904;2023-05-07T00:17:44;42.35;;;11.40;;
78116;SDS011;69042;59.120;37.904;2023-05-07T00:20:10;21.88;;;6.65;;
78116;SDS011;69042;59.120;37.904;2023-05-07T00:22:36;15.88;;;6.10;;
78116;SDS011;69042;59.120;37.904;2023-05-07T00:25:03;28.45;;;10.15;;
78116;SDS011;69042;59.120;37.904;2023-05-07T00:27:31;21.70;;;7.22;;
78116;SDS011;69042;59.120;37.904;2023-05-07T00:29:57;34.75;;;13.07;;
78116;SDS011;69042;59.120;37.904;2023-05-07T00:32:23;34.20;;;10.50;;
78116;SDS011;69042;59.120;37.904;2023-05-07T00:34:49;25.63;;;9.13;;
78116;SDS011;69042;59.120;37.904;2023-05-07T00:37:16;13.70;;;4.88;;
78116;SDS011;69042;59.120;37.904;2023-05-07T00:39:42;20.33;;;6.57;;
78116;SDS011;69042;59.120;37.904;2023-05-07T00:42:09;27.77;;;9.48;;
78116;SDS011;69042;59.120;37.904;2023-05-07T00:44:35;25.35;;;8.23;;
78116;SDS011;69042;59.120;37.904;2023-05-07T00:47:02;22.15;;;6.97;;
78116;SDS011;69042;59.120;37.904;2023-05-07T00:49:34;19.02;;;5.78;;
78116;SDS011;69042;59.120;37.904;2023-05-07T00:52:05;20.95;;;7.40;;
78116;SDS011;69042;59.120;37.904;2023-05-07T00:54:33;31.60;;;10.27;;
78116;SDS011;69042;59.120;37.904;2023-05-07T00:57:01;29.63;;;9.50;;
78116;SDS011;69042;59.120;37.904;2023-05-07T00:59:30;27.33;;;9.65;;
78116;SDS011;69042;59.120;37.904;2023-05-07T01:01:57;39.35;;;13.18;;
78116;SDS011;69042;59.120;37.904;2023-05-07T01:04:24;41.00;;;10.70;;
78116;SDS011;69042;59.120;37.904;2023-05-07T01:06:51;23.45;;;7.45;;
78116;SDS011;69042;59.120;37.904;2023-05-07T01:09:22;35.20;;;10.55;;
78116;SDS011;69042;59.120;37.904;2023-05-07T01:11:51;36.78;;;11.85;;
78116;SDS011;69042;59.120;37.904;2023-05-07T01:14:19;42.17;;;11.73;;
78116;SDS011;69042;59.120;37.904;2023-05-07T01:16:46;23.75;;;7.63;;
78116;SDS011;69042;59.120;37.904;2023-05-07T01:19:14;23.73;;;6.72;;
78116;SDS011;69042;59.120;37.904;2023-05-07T01:21:48;27.38;;;8.52;;
78116;SDS011;69042;59.120;37.904;2023-05-07T01:24:17;33.25;;;8.90;;
78116;SDS011;69042;59.120;37.904;2023-05-07T01:26:44;22.67;;;7.60;;
78116;SDS011;69042;59.120;37.904;2023-05-07T01:29:13;22.48;;;7.03;;
78116;SDS011;69042;59.120;37.904;2023-05-07T01:31:40;15.18;;;5.72;;
78116;SDS011;69042;59.120;37.904;2023-05-07T01:34:08;17.77;;;6.65;;
78116;SDS011;69042;59.120;37.904;2023-05-07T01:39:04;11.35;;;4.53;;
78116;SDS011;69042;59.120;37.904;2023-05-07T01:41:31;9.77;;;3.63;;
78116;SDS011;69042;59.120;37.904;2023-05-07T01:43:58;24.55;;;9.30;;
78116;SDS011;69042;59.120;37.904;2023-05-07T01:46:26;22.85;;;7.40;;
78116;SDS011;69042;59.120;37.904;2023-05-07T01:48:52;28.67;;;9.18;;
78116;SDS011;69042;59.120;37.904;2023-05-07T01:51:18;31.55;;;8.85;;
78116;SDS011;69042;59.120;37.904;2023-05-07T01:53:46;44.45;;;12.25;;
78116;SDS011;69042;59.120;37.904;2023-05-07T01:56:17;30.95;;;8.45;;
78116;SDS011;69042;59.120;37.904;2023-05-07T01:58:44;27.00;;;8.48;;
78116;SDS011;69042;59.120;37.904;2023-05-07T02:01:14;19.95;;;7.68;;
78116;SDS011;69042;59.120;37.904;2023-05-07T02:03:41;29.08;;;8.77;;
78116;SDS011;69042;59.120;37.904;2023-05-07T02:06:14;41.47;;;13.57;;
78116;SDS011;69042;59.120;37.904;2023-05-07T02:08:41;33.92;;;11.30;;
78116;SDS011;69042;59.120;37.904;2023-05-07T02:11:08;11.35;;;4.47;;
78116;SDS011;69042;59.120;37.904;2023-05-07T02:13:35;9.00;;;4.07;;
78116;SDS011;69042;59.120;37.904;2023-05-07T02:16:02;8.43;;;3.22;;
78116;SDS011;69042;59.120;37.904;2023-05-07T02:18:28;20.02;;;6.57;;
78116;SDS011;69042;59.120;37.904;2023-05-07T02:20:55;21.13;;;7.75;;
78116;SDS011;69042;59.120;37.904;2023-05-07T02:23:21;20.40;;;7.35;;
78116;SDS011;69042;59.120;37.904;2023-05-07T02:25:47;17.50;;;7.78;;
78116;SDS011;69042;59.120;37.904;2023-05-07T02:28:14;23.67;;;8.75;;
78116;SDS011;69042;59.120;37.904;2023-05-07T02:31:10;38.13;;;13.45;;
78116;SDS011;69042;59.120;37.904;2023-05-07T02:33:36;44.33;;;16.80;;
78116;SDS011;69042;59.120;37.904;2023-05-07T02:36:08;54.08;;;18.45;;
78116;SDS011;69042;59.120;37.904;2023-05-07T02:38:43;51.33;;;22.10;;
78116;SDS011;69042;59.120;37.904;2023-05-07T02:41:09;61.50;;;23.73;;
78116;SDS011;69042;59.120;37.904;2023-05-07T02:43:36;48.58;;;19.35;;
78116;SDS011;69042;59.120;37.904;2023-05-07T02:46:03;34.80;;;15.60;;
78116;SDS011;69042;59.120;37.904;2023-05-07T02:48:32;47.00;;;19.35;;
78116;SDS011;69042;59.120;37.904;2023-05-07T02:50:59;81.05;;;25.23;;
78116;SDS011;69042;59.120;37.904;2023-05-07T02:53:26;39.33;;;14.95;;
78116;SDS011;69042;59.120;37.904;2023-05-07T02:55:53;18.33;;;6.60;;
78116;SDS011;69042;59.120;37.904;2023-05-07T02:58:20;15.43;;;5.03;;
78116;SDS011;69042;59.120;37.904;2023-05-07T03:00:46;28.27;;;8.27;;
78116;SDS011;69042;59.120;37.904;2023-05-07T03:03:25;46.33;;;15.63;;
78116;SDS011;69042;59.120;37.904;2023-05-07T03:05:51;45.15;;;15.40;;
78116;SDS011;69042;59.120;37.904;2023-05-07T03:08:18;78.32;;;22.52;;
78116;SDS011;69042;59.120;37.904;2023-05-07T03:10:44;91.60;;;25.23;;
78116;SDS011;69042;59.120;37.904;2023-05-07T03:13:11;88.25;;;28.25;;
78116;SDS011;69042;59.120;37.904;2023-05-07T03:15:37;79.93;;;24.13;;
78116;SDS011;69042;59.120;37.904;2023-05-07T03:18:03;60.20;;;20.63;;
78116;SDS011;69042;59.120;37.904;2023-05-07T03:20:29;13.63;;;6.13;;
78116;SDS011;69042;59.120;37.904;2023-05-07T03:22:57;15.23;;;6.03;;
78116;SDS011;69042;59.120;37.904;2023-05-07T03:25:23;19.65;;;6.25;;
78116;SDS011;69042;59.120;37.904;2023-05-07T03:27:49;17.45;;;5.43;;
78116;SDS011;69042;59.120;37.904;2023-05-07T03:30:19;17.65;;;5.00;;
78116;SDS011;69042;59.120;37.904;2023-05-07T03:32:45;18.80;;;5.13;;
78116;SDS011;69042;59.120;37.904;2023-05-07T03:35:12;16.75;;;4.75;;
78116;SDS011;69042;59.120;37.904;2023-05-07T03:37:39;25.10;;;5.50;;
78116;SDS011;69042;59.120;37.904;2023-05-07T03:40:06;19.33;;;5.68;;
78116;SDS011;69042;59.120;37.904;2023-05-07T03:42:41;22.30;;;5.25;;
78116;SDS011;69042;59.120;37.904;2023-05-07T03:45:08;16.48;;;5.15;;
78116;SDS011;69042;59.120;37.904;2023-05-07T03:47:35;28.50;;;6.63;;
78116;SDS011;69042;59.120;37.904;2023-05-07T03:50:01;21.95;;;6.03;;
78116;SDS011;69042;59.120;37.904;2023-05-07T03:52:28;16.02;;;5.10;;
78116;SDS011;69042;59.120;37.904;2023-05-07T03:54:58;14.25;;;4.85;;
78116;SDS011;69042;59.120;37.904;2023-05-07T03:57:24;22.80;;;4.63;;
78116;SDS011;69042;59.120;37.904;2023-05-07T03:59:51;15.75;;;4.30;;
78116;SDS011;69042;59.120;37.904;2023-05-07T04:02:17;14.27;;;4.30;;
78116;SDS011;69042;59.120;37.904;2023-05-07T04:04:44;15.93;;;4.40;;
78116;SDS011;69042;59.120;37.904;2023-05-07T04:07:10;18.05;;;5.32;;
78116;SDS011;69042;59.120;37.904;2023-05-07T04:09:40;17.90;;;5.50;;
78116;SDS011;69042;59.120;37.904;2023-05-07T04:12:06;15.60;;;4.93;;
78116;SDS011;69042;59.120;37.904;2023-05-07T04:14:34;17.67;;;5.25;;
78116;SDS011;69042;59.120;37.904;2023-05-07T04:17:01;19.15;;;5.10;;
78116;SDS011;69042;59.120;37.904;2023-05-07T04:19:29;17.30;;;5.15;;
78116;SDS011;69042;59.120;37.904;2023-05-07T04:21:56;14.25;;;5.03;;
78116;SDS011;69042;59.120;37.904;2023-05-07T04:24:22;15.80;;;4.70;;
78116;SDS011;69042;59.120;37.904;2023-05-07T04:26:48;15.43;;;5.15;;
78116;SDS011;69042;59.120;37.904;2023-05-07T04:31:43;36.72;;;14.93;;
78116;SDS011;69042;59.120;37.904;2023-05-07T04:34:10;43.35;;;14.77;;
78116;SDS011;69042;59.120;37.904;2023-05-07T04:36:37;34.97;;;11.23;;
78116;SDS011;69042;59.120;37.904;2023-05-07T04:39:09;43.03;;;16.25;;
78116;SDS011;69042;59.120;37.904;2023-05-07T04:41:37;51.15;;;18.45;;
78116;SDS011;69042;59.120;37.904;2023-05-07T04:44:04;45.15;;;17.20;;
78116;SDS011;69042;59.120;37.904;2023-05-07T04:46:32;65.82;;;21.02;;
78116;SDS011;69042;59.120;37.904;2023-05-07T04:48:58;41.97;;;13.80;;
78116;SDS011;69042;59.120;37.904;2023-05-07T04:51:25;32.58;;;12.30;;
78116;SDS011;69042;59.120;37.904;2023-05-07T04:53:51;33.63;;;12.43;;
78116;SDS011;69042;59.120;37.904;2023-05-07T04:56:18;42.47;;;14.88;;
78116;SDS011;69042;59.120;37.904;2023-05-07T04:58:46;30.70;;;8.48;;
78116;SDS011;69042;59.120;37.904;2023-05-07T05:01:12;19.10;;;5.43;;
78116;SDS011;69042;59.120;37.904;2023-05-07T05:03:39;10.88;;;4.10;;
78116;SDS011;69042;59.120;37.904;2023-05-07T05:06:06;13.63;;;4.65;;
78116;SDS011;69042;59.120;37.904;2023-05-07T05:08:33;22.90;;;7.03;;
78116;SDS011;69042;59.120;37.904;2023-05-07T05:11:02;22.40;;;7.05;;
78116;SDS011;69042;59.120;37.904;2023-05-07T05:13:28;20.85;;;6.40;;
78116;SDS011;69042;59.120;37.904;2023-05-07T05:15:56;15.23;;;5.95;;
78116;SDS011;69042;59.120;37.904;2023-05-07T05:18:23;12.52;;;5.18;;
78116;SDS011;69042;59.120;37.904;2023-05-07T05:20:51;7.93;;;2.97;;
78116;SDS011;69042;59.120;37.904;2023-05-07T05:23:18;12.88;;;4.55;;
78116;SDS011;69042;59.120;37.904;2023-05-07T05:25:44;12.40;;;4.03;;
78116;SDS011;69042;59.120;37.904;2023-05-07T05:28:13;10.80;;;3.72;;
78116;SDS011;69042;59.120;37.904;2023-05-07T05:30:39;7.60;;;3.22;;
78116;SDS011;69042;59.120;37.904;2023-05-07T05:33:06;10.60;;;3.47;;
78116;SDS011;69042;59.120;37.904;2023-05-07T05:35:32;12.95;;;3.78;;
78116;SDS011;69042;59.120;37.904;2023-05-07T05:38:03;12.52;;;5.05;;
78116;SDS011;69042;59.120;37.904;2023-05-07T05:40:29;11.80;;;5.22;;
78116;SDS011;69042;59.120;37.904;2023-05-07T05:42:56;8.63;;;3.30;;
78116;SDS011;69042;59.120;37.904;2023-05-07T05:45:23;7.07;;;2.80;;
78116;SDS011;69042;59.120;37.904;2023-05-07T05:47:50;7.07;;;2.85;;
78116;SDS011;69042;59.120;37.904;2023-05-07T05:50:17;5.35;;;2.22;;
78116;SDS011;69042;59.120;37.904;2023-05-07T05:52:44;24.00;;;9.13;;
78116;SDS011;69042;59.120;37.904;2023-05-07T05:55:10;10.55;;;3.85;;
78116;SDS011;69042;59.120;37.904;2023-05-07T05:57:38;9.32;;;3.17;;
78116;SDS011;69042;59.120;37.904;2023-05-07T06:00:04;7.47;;;2.33;;
78116;SDS011;69042;59.120;37.904;2023-05-07T06:02:33;7.95;;;2.92;;
78116;SDS011;69042;59.120;37.904;2023-05-07T06:04:59;11.55;;;3.45;;
78116;SDS011;69042;59.120;37.904;2023-05-07T06:07:26;14.98;;;5.20;;
78116;SDS011;69042;59.120;37.904;2023-05-07T06:09:52;6.70;;;2.05;;
78116;SDS011;69042;59.120;37.904;2023-05-07T06:12:20;7.00;;;2.22;;
78116;SDS011;69042;59.120;37.904;2023-05-07T06:14:47;5.72;;;1.88;;
78116;SDS011;69042;59.120;37.904;2023-05-07T06:17:13;8.02;;;2.80;;
78116;SDS011;69042;59.120;37.904;2023-05-07T06:19:41;8.10;;;2.35;;
78116;SDS011;69042;59.120;37.904;2023-05-07T06:22:08;8.45;;;2.85;;
78116;SDS011;69042;59.120;37.904;2023-05-07T06:24:36;11.40;;;3.13;;
78116;SDS011;69042;59.120;37.904;2023-05-07T06:27:06;15.68;;;4.57;;
78116;SDS011;69042;59.120;37.904;2023-05-07T06:29:32;8.45;;;3.30;;
78116;SDS011;69042;59.120;37.904;2023-05-07T06:34:39;4.78;;;2.00;;
78116;SDS011;69042;59.120;37.904;2023-05-07T06:37:07;10.65;;;3.70;;
78116;SDS011;69042;59.120;37.904;2023-05-07T06:39:47;12.13;;;3.40;;
78116;SDS011;69042;59.120;37.904;2023-05-07T06:42:13;28.55;;;9.60;;
78116;SDS011;69042;59.120;37.904;2023-05-07T06:44:42;18.45;;;6.05;;
78116;SDS011;69042;59.120;37.904;2023-05-07T06:47:11;13.90;;;4.85;;
78116;SDS011;69042;59.120;37.904;2023-05-07T06:49:39;11.30;;;4.07;;
78116;SDS011;69042;59.120;37.904;2023-05-07T06:52:06;15.93;;;5.38;;
78116;SDS011;69042;59.120;37.904;2023-05-07T06:54:34;10.10;;;3.97;;
78116;SDS011;69042;59.120;37.904;2023-05-07T06:57:01;26.40;;;10.68;;
78116;SDS011;69042;59.120;37.904;2023-05-07T06:59:30;21.55;;;8.00;;
78116;SDS011;69042;59.120;37.904;2023-05-07T07:01:59;7.68;;;3.13;;
78116;SDS011;69042;59.120;37.904;2023-05-07T07:04:26;7.15;;;2.22;;
78116;SDS011;69042;59.120;37.904;2023-05-07T07:07:01;8.32;;;2.40;;
78116;SDS011;69042;59.120;37.904;2023-05-07T07:09:28;7.35;;;2.38;;
78116;SDS011;69042;59.120;37.904;2023-05-07T07:11:56;13.65;;;5.00;;
78116;SDS011;69042;59.120;37.904;2023-05-07T07:14:24;14.23;;;5.43;;
78116;SDS011;69042;59.120;37.904;2023-05-07T07:16:54;9.30;;;3.28;;
78116;SDS011;69042;59.120;37.904;2023-05-07T07:19:25;9.60;;;3.20;;
78116;SDS011;69042;59.120;37.904;2023-05-07T07:21:54;12.20;;;3.78;;
78116;SDS011;69042;59.120;37.904;2023-05-07T07:24:21;22.80;;;7.07;;
78116;SDS011;69042;59.120;37.904;2023-05-07T07:26:52;10.77;;;3.45;;
78116;SDS011;69042;59.120;37.904;2023-05-07T07:29:22;8.98;;;2.17;;
78116;SDS011;69042;59.120;37.904;2023-05-07T07:31:53;9.57;;;2.38;;
78116;SDS011;69042;59.120;37.904;2023-05-07T07:34:20;6.82;;;2.03;;
78116;SDS011;69042;59.120;37.904;2023-05-07T07:36:49;4.40;;;1.42;;
78116;SDS011;69042;59.120;37.904;2023-05-07T07:39:17;4.72;;;1.30;;
78116;SDS011;69042;59.120;37.904;2023-05-07T07:41:46;4.07;;;1.27;;
78116;SDS011;69042;59.120;37.904;2023-05-07T07:44:14;3.95;;;1.35;;
78116;SDS011;69042;59.120;37.904;2023-05-07T07:46:40;3.60;;;1.20;;
78116;SDS011;69042;59.120;37.904;2023-05-07T07:49:07;5.22;;;1.40;;
78116;SDS011;69042;59.120;37.904;2023-05-07T07:51:34;4.47;;;1.10;;
78116;SDS011;69042;59.120;37.904;2023-05-07T07:54:01;4.38;;;1.50;;
78116;SDS011;69042;59.120;37.904;2023-05-07T07:56:32;8.82;;;3.25;;
78116;SDS011;69042;59.120;37.904;2023-05-07T07:59:05;12.90;;;5.30;;
78116;SDS011;69042;59.120;37.904;2023-05-07T08:01:33;18.17;;;6.05;;
78116;SDS011;69042;59.120;37.904;2023-05-07T08:04:01;14.68;;;6.30;;
78116;SDS011;69042;59.120;37.904;2023-05-07T08:06:31;6.80;;;2.47;;
78116;SDS011;69042;59.120;37.904;2023-05-07T08:08:58;7.32;;;1.70;;
78116;SDS011;69042;59.120;37.904;2023-05-07T08:11:24;8.27;;;2.50;;
78116;SDS011;69042;59.120;37.904;2023-05-07T08:13:54;8.38;;;1.80;;
78116;SDS011;69042;59.120;37.904;2023-05-07T08:16:21;9.50;;;2.38;;
78116;SDS011;69042;59.120;37.904;2023-05-07T08:18:48;12.95;;;4.75;;
78116;SDS011;69042;59.120;37.904;2023-05-07T08:21:14;16.10;;;4.45;;
78116;SDS011;69042;59.120;37.904;2023-05-07T08:23:44;9.20;;;3.00;;
78116;SDS011;69042;59.120;37.904;2023-05-07T08:26:10;10.82;;;4.90;;
78116;SDS011;69042;59.120;37.904;2023-05-07T08:28:38;12.00;;;2.97;;
78116;SDS011;69042;59.120;37.904;2023-05-07T08:31:09;9.85;;;3.00;;
78116;SDS011;69042;59.120;37.904;2023-05-07T08:33:38;7.82;;;1.90;;
78116;SDS011;69042;59.120;37.904;2023-05-07T08:36:06;11.57;;;3.97;;
78116;SDS011;69042;59.120;37.904;2023-05-07T08:38:33;11.20;;;3.65;;
78116;SDS011;69042;59.120;37.904;2023-05-07T08:40:59;4.88;;;1.88;;
78116;SDS011;69042;59.120;37.904;2023-05-07T08:43:27;6.65;;;2.50;;
78116;SDS011;69042;59.120;37.904;2023-05-07T08:45:55;7.35;;;2.22;;
78116;SDS011;69042;59.120;37.904;2023-05-07T08:48:28;5.45;;;1.83;;
78116;SDS011;69042;59.120;37.904;2023-05-07T08:51:05;3.42;;;1.13;;
78116;SDS011;69042;59.120;37.904;2023-05-07T08:53:35;5.72;;;1.60;;
78116;SDS011;69042;59.120;37.904;2023-05-07T08:56:03;8.10;;;2.30;;
78116;SDS011;69042;59.120;37.904;2023-05-07T08:58:31;5.78;;;2.22;;
78116;SDS011;69042;59.120;37.904;2023-05-07T09:01:01;2.92;;;0.93;;
78116;SDS011;69042;59.120;37.904;2023-05-07T09:03:34;2.88;;;0.93;;
78116;SDS011;69042;59.120;37.904;2023-05-07T09:06:01;3.08;;;1.02;;
78116;SDS011;69042;59.120;37.904;2023-05-07T09:08:29;5.25;;;1.92;;
78116;SDS011;69042;59.120;37.904;2023-05-07T09:10:59;7.13;;;2.08;;
78116;SDS011;69042;59.120;37.904;2023-05-07T09:13:26;9.07;;;3.00;;
78116;SDS011;69042;59.120;37.904;2023-05-07T09:15:56;13.77;;;4.13;;
78116;SDS011;69042;59.120;37.904;2023-05-07T09:18:24;16.48;;;4.55;;
78116;SDS011;69042;59.120;37.904;2023-05-07T09:20:51;9.45;;;3.05;;
78116;SDS011;69042;59.120;37.904;2023-05-07T09:23:20;4.43;;;1.30;;
78116;SDS011;69042;59.120;37.904;2023-05-07T09:25:46;2.88;;;1.10;;
78116;SDS011;69042;59.120;37.904;2023-05-07T09:28:20;3.80;;;1.33;;
78116;SDS011;69042;59.120;37.904;2023-05-07T09:30:46;5.38;;;1.45;;
78116;SDS011;69042;59.120;37.904;2023-05-07T09:33:15;14.13;;;4.82;;
78116;SDS011;69042;59.120;37.904;2023-05-07T09:35:51;7.15;;;2.83;;
78116;SDS011;69042;59.120;37.904;2023-05-07T09:38:19;5.45;;;1.90;;
78116;SDS011;69042;59.120;37.904;2023-05-07T09:40:52;11.50;;;3.45;;
78116;SDS011;69042;59.120;37.904;2023-05-07T09:43:39;34.47;;;12.25;;
78116;SDS011;69042;59.120;37.904;2023-05-07T09:48:38;15.88;;;4.53;;
78116;SDS011;69042;59.120;37.904;2023-05-07T09:51:09;10.55;;;3.30;;
78116;SDS011;69042;59.120;37.904;2023-05-07T09:53:44;6.88;;;2.25;;
78116;SDS011;69042;59.120;37.904;2023-05-07T09:56:13;44.67;;;15.30;;
78116;SDS011;69042;59.120;37.904;2023-05-07T09:58:42;15.60;;;6.28;;
78116;SDS011;69042;59.120;37.904;2023-05-07T10:01:13;20.33;;;7.97;;
78116;SDS011;69042;59.120;37.904;2023-05-07T10:03:44;13.10;;;5.68;;
78116;SDS011;69042;59.120;37.904;2023-05-07T10:06:12;19.95;;;5.45;;
78116;SDS011;69042;59.120;37.904;2023-05-07T10:08:42;9.10;;;3.45;;
78116;SDS011;69042;59.120;37.904;2023-05-07T10:11:10;15.63;;;5.55;;
78116;SDS011;69042;59.120;37.904;2023-05-07T10:13:38;7.38;;;2.72;;
78116;SDS011;69042;59.120;37.904;2023-05-07T10:16:09;11.85;;;4.25;;
78116;SDS011;69042;59.120;37.904;2023-05-07T10:18:43;3.42;;;1.13;;
78116;SDS011;69042;59.120;37.904;2023-05-07T10:21:18;7.18;;;3.03;;
78116;SDS011;69042;59.120;37.904;2023-05-07T10:23:57;21.73;;;7.20;;
78116;SDS011;69042;59.120;37.904;2023-05-07T10:26:45;13.40;;;4.72;;
78116;SDS011;69042;59.120;37.904;2023-05-07T10:34:28;3.40;;;1.10;;
78116;SDS011;69042;59.120;37.904;2023-05-07T10:37:01;5.72;;;1.60;;
78116;SDS011;69042;59.120;37.904;2023-05-07T10:39:31;22.65;;;8.38;;
78116;SDS011;69042;59.120;37.904;2023-05-07T10:42:11;15.68;;;5.20;;
78116;SDS011;69042;59.120;37.904;2023-05-07T10:44:45;9.38;;;3.42;;
78116;SDS011;69042;59.120;37.904;2023-05-07T10:47:18;10.77;;;3.70;;
78116;SDS011;69042;59.120;37.904;2023-05-07T10:52:32;11.07;;;3.80;;
78116;SDS011;69042;59.120;37.904;2023-05-07T11:05:33;7.82;;;2.30;;
78116;SDS011;69042;59.120;37.904;2023-05-07T11:08:21;7.03;;;2.28;;
78116;SDS011;69042;59.120;37.904;2023-05-07T11:11:13;8.52;;;3.00;;
78116;SDS011;69042;59.120;37.904;2023-05-07T11:13:48;7.72;;;2.88;;
78116;SDS011;69042;59.120;37.904;2023-05-07T11:16:41;7.22;;;2.88;;
78116;SDS011;69042;59.120;37.904;2023-05-07T11:19:18;8.88;;;3.35;;
78116;SDS011;69042;59.120;37.904;2023-05-07T11:28:15;9.10;;;2.85;;
78116;SDS011;69042;59.120;37.904;2023-05-07T11:30:50;9.93;;;2.97;;
78116;SDS011;69042;59.120;37.904;2023-05-07T11:33:19;13.85;;;3.55;;
78116;SDS011;69042;59.120;37.904;2023-05-07T11:35:50;12.27;;;4.10;;
78116;SDS011;69042;59.120;37.904;2023-05-07T11:38:20;18.27;;;5.43;;
78116;SDS011;69042;59.120;37.904;2023-05-07T11:40:50;12.75;;;4.22;;
78116;SDS011;69042;59.120;37.904;2023-05-07T11:43:20;4.95;;;1.65;;
78116;SDS011;69042;59.120;37.904;2023-05-07T11:45:47;14.85;;;5.63;;
78116;SDS011;69042;59.120;37.904;2023-05-07T11:50:52;5.40;;;1.80;;
78116;SDS011;69042;59.120;37.904;2023-05-07T11:53:20;4.65;;;1.10;;
78116;SDS011;69042;59.120;37.904;2023-05-07T11:55:52;5.15;;;1.52;;
78116;SDS011;69042;59.120;37.904;2023-05-07T11:58:24;6.13;;;1.30;;
78116;SDS011;69042;59.120;37.904;2023-05-07T12:00:54;4.38;;;1.50;;
78116;SDS011;69042;59.120;37.904;2023-05-07T12:03:22;5.00;;;1.75;;
78116;SDS011;69042;59.120;37.904;2023-05-07T12:05:48;5.82;;;1.90;;
78116;SDS011;69042;59.120;37.904;2023-05-07T12:08:16;6.70;;;1.35;;
78116;SDS011;69042;59.120;37.904;2023-05-07T12:13:21;4.53;;;1.23;;
78116;SDS011;69042;59.120;37.904;2023-05-07T12:15:54;5.18;;;1.00;;
78116;SDS011;69042;59.120;37.904;2023-05-07T12:18:23;4.32;;;1.27;;
78116;SDS011;69042;59.120;37.904;2023-05-07T12:20:51;11.68;;;3.17;;
78116;SDS011;69042;59.120;37.904;2023-05-07T12:23:18;8.02;;;2.55;;
78116;SDS011;69042;59.120;37.904;2023-05-07T12:25:45;10.13;;;2.97;;
78116;SDS011;69042;59.120;37.904;2023-05-07T12:28:14;4.65;;;1.60;;
78116;SDS011;69042;59.120;37.904;2023-05-07T12:30:42;8.15;;;1.35;;
78116;SDS011;69042;59.120;37.904;2023-05-07T12:33:11;6.05;;;1.45;;
78116;SDS011;69042;59.120;37.904;2023-05-07T12:35:41;5.38;;;1.40;;
78116;SDS011;69042;59.120;37.904;2023-05-07T12:38:09;3.88;;;1.20;;
78116;SDS011;69042;59.120;37.904;2023-05-07T12:40:41;4.75;;;1.48;;
78116;SDS011;69042;59.120;37.904;2023-05-07T12:45:49;3.60;;;1.20;;
78116;SDS011;69042;59.120;37.904;2023-05-07T12:48:17;4.57;;;1.20;;
78116;SDS011;69042;59.120;37.904;2023-05-07T12:50:44;3.70;;;1.10;;
78116;SDS011;69042;59.120;37.904;2023-05-07T12:53:11;3.72;;;1.10;;
78116;SDS011;69042;59.120;37.904;2023-05-07T12:55:42;5.15;;;1.38;;
78116;SDS011;69042;59.120;37.904;2023-05-07T12:58:14;5.53;;;2.38;;
78116;SDS011;69042;59.120;37.904;2023-05-07T13:00:44;7.07;;;1.73;;
78116;SDS011;69042;59.120;37.904;2023-05-07T13:03:15;3.13;;;1.10;;
78116;SDS011;69042;59.120;37.904;2023-05-07T13:06:00;3.40;;;1.00;;
78116;SDS011;69042;59.120;37.904;2023-05-07T13:08:32;3.58;;;1.30;;
78116;SDS011;69042;59.120;37.904;2023-05-07T13:11:03;3.55;;;1.20;;
78116;SDS011;69042;59.120;37.904;2023-05-07T13:13:31;3.03;;;1.10;;
78116;SDS011;69042;59.120;37.904;2023-05-07T13:15:59;3.30;;;1.10;;
78116;SDS011;69042;59.120;37.904;2023-05-07T13:18:26;4.75;;;1.30;;
78116;SDS011;69042;59.120;37.904;2023-05-07T13:20:54;5.15;;;1.40;;
78116;SDS011;69042;59.120;37.904;2023-05-07T13:23:21;4.15;;;1.35;;
78116;SDS011;69042;59.120;37.904;2023-05-07T13:25:49;3.70;;;1.10;;
78116;SDS011;69042;59.120;37.904;2023-05-07T13:28:16;3.95;;;1.00;;
78116;SDS011;69042;59.120;37.904;2023-05-07T13:30:45;5.25;;;1.45;;
78116;SDS011;69042;59.120;37.904;2023-05-07T13:33:12;4.75;;;1.50;;
78116;SDS011;69042;59.120;37.904;2023-05-07T13:35:39;3.38;;;1.10;;
78116;SDS011;69042;59.120;37.904;2023-05-07T13:38:06;4.55;;;1.10;;
78116;SDS011;69042;59.120;37.904;2023-05-07T13:40:33;3.58;;;1.30;;
78116;SDS011;69042;59.120;37.904;2023-05-07T13:43:00;3.95;;;1.40;;
78116;SDS011;69042;59.120;37.904;2023-05-07T13:45:28;4.40;;;1.27;;
78116;SDS011;69042;59.120;37.904;2023-05-07T13:47:58;3.95;;;1.52;;
78116;SDS011;69042;59.120;37.904;2023-05-07T13:50:24;8.95;;;3.67;;
78116;SDS011;69042;59.120;37.904;2023-05-07T13:52:53;9.55;;;4.15;;
78116;SDS011;69042;59.120;37.904;2023-05-07T13:55:20;5.75;;;1.50;;
78116;SDS011;69042;59.120;37.904;2023-05-07T13:57:54;6.65;;;1.40;;
78116;SDS011;69042;59.120;37.904;2023-05-07T14:00:22;3.10;;;1.08;;
78116;SDS011;69042;59.120;37.904;2023-05-07T14:02:49;3.90;;;1.20;;
78116;SDS011;69042;59.120;37.904;2023-05-07T14:05:15;4.50;;;1.40;;
78116;SDS011;69042;59.120;37.904;2023-05-07T14:07:42;2.92;;;1.05;;
78116;SDS011;69042;59.120;37.904;2023-05-07T14:10:12;3.80;;;1.13;;
78116;SDS011;69042;59.120;37.904;2023-05-07T14:12:38;3.85;;;1.20;;
78116;SDS011;69042;59.120;37.904;2023-05-07T14:15:05;4.35;;;1.08;;
78116;SDS011;69042;59.120;37.904;2023-05-07T14:17:32;4.43;;;1.70;;
78116;SDS011;69042;59.120;37.904;2023-05-07T14:19:59;4.75;;;1.45;;
78116;SDS011;69042;59.120;37.904;2023-05-07T14:22:25;3.13;;;1.02;;
78116;SDS011;69042;59.120;37.904;2023-05-07T14:24:53;3.85;;;1.10;;
78116;SDS011;69042;59.120;37.904;2023-05-07T14:27:20;3.92;;;1.10;;
78116;SDS011;69042;59.120;37.904;2023-05-07T14:29:46;4.97;;;1.70;;
78116;SDS011;69042;59.120;37.904;2023-05-07T14:32:17;4.63;;;1.27;;
78116;SDS011;69042;59.120;37.904;2023-05-07T14:34:44;3.00;;;1.10;;
78116;SDS011;69042;59.120;37.904;2023-05-07T14:37:12;3.92;;;1.13;;
78116;SDS011;69042;59.120;37.904;2023-05-07T14:39:39;4.28;;;1.20;;
78116;SDS011;69042;59.120;37.904;2023-05-07T14:42:05;4.72;;;1.83;;
78116;SDS011;69042;59.120;37.904;2023-05-07T14:44:37;6.05;;;1.98;;
78116;SDS011;69042;59.120;37.904;2023-05-07T14:47:03;5.93;;;1.45;;
78116;SDS011;69042;59.120;37.904;2023-05-07T14:49:33;7.07;;;1.70;;
78116;SDS011;69042;59.120;37.904;2023-05-07T14:51:59;7.68;;;1.80;;
78116;SDS011;69042;59.120;37.904;2023-05-07T14:54:28;6.90;;;1.48;;
78116;SDS011;69042;59.120;37.904;2023-05-07T14:56:55;9.68;;;2.63;;
78116;SDS011;69042;59.120;37.904;2023-05-07T14:59:22;26.02;;;7.43;;
78116;SDS011;69042;59.120;37.904;2023-05-07T15:01:51;6.88;;;1.95;;
78116;SDS011;69042;59.120;37.904;2023-05-07T15:04:17;9.50;;;3.40;;
78116;SDS011;69042;59.120;37.904;2023-05-07T15:06:45;9.45;;;3.60;;
78116;SDS011;69042;59.120;37.904;2023-05-07T15:09:13;8.80;;;3.83;;
78116;SDS011;69042;59.120;37.904;2023-05-07T15:11:39;5.60;;;2.60;;
78116;SDS011;69042;59.120;37.904;2023-05-07T15:14:06;8.70;;;3.10;;
78116;SDS011;69042;59.120;37.904;2023-05-07T15:16:33;12.85;;;5.22;;